createdAt,value
2019-06-07T00:00:38.252Z,96856.88
2019-06-07T00:02:51.769Z,96854.33
2019-06-07T00:05:19.985Z,96850.28
2019-06-07T00:07:46.643Z,96841.38
2019-06-07T00:10:32.630Z,96835.23
2019-06-07T00:12:41.702Z,96832.13
2019-06-07T00:15:11.641Z,96830.01
2019-06-07T00:17:36.572Z,96827.05
2019-06-07T00:20:03.990Z,96834.55
2019-06-07T00:22:33.435Z,96824.08
2019-06-07T00:24:58.830Z,96827.66
2019-06-07T00:27:26.227Z,96832.02
2019-06-07T00:29:53.641Z,96830.42
2019-06-07T00:32:22.053Z,96827.17
2019-06-07T00:34:48.499Z,96831.74
2019-06-07T00:37:16.407Z,96839.64
2019-06-07T00:39:43.384Z,96843.11
2019-06-07T00:42:11.474Z,96827.67
2019-06-07T00:44:38.272Z,96829.45
2019-06-07T00:47:05.667Z,96822.30
2019-06-07T00:49:40.957Z,96826.48
2019-06-07T00:52:00.503Z,96825.57
2019-06-07T00:54:28.090Z,96832.08
2019-06-07T00:56:55.496Z,96830.13
2019-06-07T00:59:28.829Z,96826.12
2019-06-07T01:01:50.428Z,96823.63
2019-06-07T01:04:19.394Z,96816.80
2019-06-07T01:06:45.245Z,96813.28
2019-06-07T01:09:12.887Z,96811.64
2019-06-07T01:11:40.151Z,96806.30
2019-06-07T01:14:07.548Z,96811.72
2019-06-07T01:16:55.797Z,96812.64
2019-06-07T01:19:02.472Z,96813.70
2019-06-07T01:21:30.119Z,96819.17
2019-06-07T01:24:11.452Z,96815.63
2019-06-07T01:26:26.948Z,96821.83
2019-06-07T01:28:52.123Z,96816.82
2019-06-07T01:31:21.129Z,96817.59
2019-06-07T01:33:50.957Z,96823.78
2019-06-07T01:36:14.506Z,96822.07
2019-06-07T01:38:41.982Z,96829.69
2019-06-07T01:41:09.439Z,96822.41
2019-06-07T01:43:36.853Z,96819.58
2019-06-07T01:46:04.383Z,96822.58
2019-06-07T01:48:48.461Z,96821.00
2019-06-07T01:50:59.218Z,96823.78
2019-06-07T01:53:29.127Z,96829.28
2019-06-07T01:55:54.066Z,96829.31
2019-06-07T01:58:22.231Z,96825.25
2019-06-07T02:00:48.945Z,96820.69
2019-06-07T02:03:18.368Z,96816.63
2019-06-07T02:05:44.364Z,96807.97
2019-06-07T02:08:11.806Z,96815.69
2019-06-07T02:10:39.223Z,96810.44
2019-06-07T02:13:06.663Z,96816.27
2019-06-07T02:15:36.770Z,96815.25
2019-06-07T02:18:01.596Z,96814.98
2019-06-07T02:20:32.112Z,96811.38
2019-06-07T02:22:56.684Z,96811.81
2019-06-07T02:25:48.450Z,96809.34
2019-06-07T02:27:51.639Z,96808.53
2019-06-07T02:32:46.665Z,96806.70
2019-06-07T02:35:14.176Z,96805.54
2019-06-07T02:37:41.682Z,96811.02
2019-06-07T02:40:09.150Z,96813.20
2019-06-07T02:42:42.251Z,96808.80
2019-06-07T02:45:04.939Z,96807.83
2019-06-07T02:47:36.041Z,96800.13
2019-06-07T02:49:59.872Z,96814.64
2019-06-07T02:52:31.616Z,96805.89
2019-06-07T02:54:54.923Z,96803.48
2019-06-07T02:57:24.997Z,96804.50
2019-06-07T03:00:06.463Z,96798.81
2019-06-07T03:02:17.382Z,96795.56
2019-06-07T03:04:45.142Z,96790.52
2019-06-07T03:07:12.434Z,96787.85
2019-06-07T03:09:40.165Z,96776.06
2019-06-07T03:12:07.432Z,96776.41
2019-06-07T03:14:35.281Z,96766.66
2019-06-07T03:19:58.471Z,96765.18
2019-06-07T03:22:26.724Z,96764.03
2019-06-07T03:24:53.398Z,96773.33
2019-06-07T03:27:34.903Z,96768.98
2019-06-07T03:29:48.386Z,96755.08
2019-06-07T03:32:15.861Z,96752.52
2019-06-07T03:34:44.015Z,96753.42
2019-06-07T03:37:10.847Z,96753.81
2019-06-07T03:39:40.912Z,96766.17
2019-06-07T03:42:08.387Z,96759.09
2019-06-07T03:44:36.408Z,96746.63
2019-06-07T03:47:00.844Z,96750.03
2019-06-07T03:49:30.737Z,96759.27
2019-06-07T03:51:55.779Z,96756.73
2019-06-07T03:54:23.236Z,96765.09
2019-06-07T03:56:50.771Z,96766.19
2019-06-07T03:59:18.242Z,96766.11
2019-06-07T04:01:45.798Z,96757.09
2019-06-07T04:04:13.247Z,96752.45
2019-06-07T04:06:42.398Z,96771.92
2019-06-07T04:09:08.321Z,96754.56
2019-06-07T04:11:39.095Z,96749.62
2019-06-07T04:14:03.307Z,96752.89
2019-06-07T04:16:34.641Z,96748.53
2019-06-07T04:18:58.566Z,96754.42
2019-06-07T04:21:26.103Z,96741.20
2019-06-07T04:23:53.582Z,96740.25
2019-06-07T04:26:21.069Z,96732.08
2019-06-07T04:29:31.520Z,96733.37
2019-06-07T04:31:16.027Z,96727.89
2019-06-07T04:33:43.904Z,96733.32
2019-06-07T04:36:10.964Z,96739.86
2019-06-07T04:38:40.558Z,96740.53
2019-06-07T04:41:06.086Z,96740.13
2019-06-07T04:43:33.606Z,96737.44
2019-06-07T04:46:01.098Z,96731.16
2019-06-07T04:48:30.918Z,96726.80
2019-06-07T04:50:56.152Z,96730.48
2019-06-07T04:53:23.613Z,96740.73
2019-06-07T04:55:51.088Z,96733.69
2019-06-07T04:58:18.601Z,96739.98
2019-06-07T05:00:53.240Z,96735.63
2019-06-07T05:03:13.599Z,96736.84
2019-06-07T05:05:43.674Z,96732.19
2019-06-07T05:08:27.119Z,96728.93
2019-06-07T05:10:38.228Z,96728.94
2019-06-07T05:13:03.731Z,96734.00
2019-06-07T05:15:32.057Z,96728.36
2019-06-07T05:17:58.812Z,96725.75
2019-06-07T05:20:26.471Z,96730.34
2019-06-07T05:22:53.972Z,96732.85
2019-06-07T05:25:21.448Z,96725.18
2019-06-07T05:27:48.922Z,96719.69
2019-06-07T05:32:58.865Z,96719.56
2019-06-07T05:35:26.369Z,96717.13
2019-06-07T05:37:53.842Z,96706.68
2019-06-07T05:40:21.582Z,96705.84
2019-06-07T05:42:48.835Z,96709.45
2019-06-07T05:45:16.291Z,96705.13
2019-06-07T05:47:50.277Z,96702.09
2019-06-07T05:50:38.581Z,96693.83
2019-06-07T05:52:42.432Z,96701.06
2019-06-07T05:55:07.202Z,96690.07
2019-06-07T05:57:38.089Z,96683.05
2019-06-07T06:00:02.235Z,96683.86
2019-06-07T06:02:29.707Z,96687.59
2019-06-07T06:04:57.225Z,96688.78
2019-06-07T06:07:24.863Z,96681.47
2019-06-07T06:09:52.318Z,96672.22
2019-06-07T06:12:34.175Z,96676.79
2019-06-07T06:14:47.353Z,96669.50
2019-06-07T06:17:14.831Z,96671.73
2019-06-07T06:19:48.872Z,96671.39
2019-06-07T06:22:09.824Z,96668.25
2019-06-07T06:24:37.645Z,96669.63
2019-06-07T06:27:28.289Z,96670.27
2019-06-07T06:29:31.868Z,96671.55
2019-06-07T06:34:26.883Z,96672.59
2019-06-07T06:36:54.330Z,96661.33
2019-06-07T06:39:21.836Z,96666.38
2019-06-07T06:41:58.607Z,96661.66
2019-06-07T06:44:16.821Z,96666.77
2019-06-07T06:46:49.101Z,96661.70
2019-06-07T06:49:12.001Z,96662.58
2019-06-07T06:51:41.714Z,96663.87
2019-06-07T06:54:07.009Z,96654.84
2019-06-07T06:56:34.540Z,96651.70
2019-06-07T07:01:29.750Z,96637.25
2019-06-07T07:04:11.377Z,96643.25
2019-06-07T07:06:26.764Z,96639.61
2019-06-07T07:08:53.439Z,96634.47
2019-06-07T07:11:23.119Z,96632.05
2019-06-07T07:13:49.884Z,96633.05
2019-06-07T07:16:14.468Z,96637.67
2019-06-07T07:18:41.774Z,96635.00
2019-06-07T07:21:08.486Z,96640.54
2019-06-07T07:23:35.476Z,96632.10
2019-06-07T07:26:02.454Z,96624.95
2019-06-07T07:28:29.475Z,96620.33
2019-06-07T07:30:57.148Z,96614.92
2019-06-07T07:33:23.638Z,96617.09
2019-06-07T07:36:10.858Z,96612.48
2019-06-07T07:38:17.718Z,96614.03
2019-06-07T07:43:11.818Z,96606.58
2019-06-07T07:45:38.962Z,96601.98
2019-06-07T07:48:15.483Z,96612.11
2019-06-07T07:50:33.146Z,96610.45
2019-06-07T07:53:00.862Z,96600.21
2019-06-07T07:55:27.277Z,96596.27
2019-06-07T07:58:01.139Z,96593.86
2019-06-07T08:02:48.957Z,96592.55
2019-06-07T08:05:23.488Z,96582.47
2019-06-07T08:07:43.035Z,96590.18
2019-06-07T08:10:10.172Z,96583.42
2019-06-07T08:12:55.798Z,96583.04
2019-06-07T08:15:05.148Z,96577.23
2019-06-07T08:17:32.172Z,96584.54
2019-06-07T08:20:02.808Z,96569.55
2019-06-07T08:22:26.231Z,96570.88
2019-06-07T08:24:55.301Z,96578.37
2019-06-07T08:27:26.277Z,96571.76
2019-06-07T08:30:13.903Z,96567.62
2019-06-07T08:32:14.890Z,96563.59
2019-06-07T08:34:41.915Z,96560.82
2019-06-07T08:37:09.943Z,96560.67
2019-06-07T08:39:59.664Z,96567.79
2019-06-07T08:42:36.576Z,96562.05
2019-06-07T08:44:53.593Z,96557.84
2019-06-07T08:47:20.874Z,96555.05
2019-06-07T08:49:45.873Z,96555.63
2019-06-07T08:52:13.436Z,96550.14
2019-06-07T08:54:40.495Z,96552.55
2019-06-07T08:57:20.777Z,96552.09
2019-06-07T08:59:34.571Z,96542.78
2019-06-07T09:02:06.662Z,96540.66
2019-06-07T09:04:28.597Z,96539.42
2019-06-07T09:07:07.359Z,96543.29
2019-06-07T09:09:22.710Z,96535.97
2019-06-07T09:11:49.699Z,96533.77
2019-06-07T09:14:16.699Z,96530.98
2019-06-07T09:16:43.683Z,96533.72
2019-06-07T09:19:11.323Z,96532.19
2019-06-07T09:21:37.784Z,96528.20
2019-06-07T09:24:11.357Z,96523.27
2019-06-07T09:26:31.886Z,96527.17
2019-06-07T09:29:01.289Z,96517.20
2019-06-07T09:31:50.358Z,96512.17
2019-06-07T09:33:53.942Z,96514.93
2019-06-07T09:36:21.173Z,96521.27
2019-06-07T09:38:48.258Z,96514.44
2019-06-07T09:41:15.429Z,96515.58
2019-06-07T09:46:15.261Z,96501.81
2019-06-07T09:51:09.519Z,96492.37
2019-06-07T09:53:31.138Z,96501.73
2019-06-07T09:56:02.913Z,96495.62
2019-06-07T10:00:52.323Z,96488.16
2019-06-07T10:03:22.380Z,96481.17
2019-06-07T10:05:47.328Z,96490.58
2019-06-07T10:09:14.994Z,96490.02
2019-06-07T10:10:43.162Z,96483.02
2019-06-07T10:13:10.298Z,96480.69
2019-06-07T10:15:37.546Z,96484.48
2019-06-07T10:18:05.234Z,96480.45
2019-06-07T10:20:32.777Z,96478.16
2019-06-07T10:23:01.604Z,96478.44
2019-06-07T10:25:27.919Z,96467.92
2019-06-07T10:27:56.042Z,96470.91
2019-06-07T10:30:23.581Z,96468.74
2019-06-07T10:32:52.414Z,96461.39
2019-06-07T10:35:19.955Z,96471.78
2019-06-07T10:37:47.556Z,96469.92
2019-06-07T10:40:15.086Z,96472.11
2019-06-07T10:42:42.553Z,96479.00
2019-06-07T10:45:12.176Z,96472.31
2019-06-07T10:47:38.469Z,96470.87
2019-06-07T10:50:06.054Z,96473.34
2019-06-07T10:52:33.552Z,96467.60
2019-06-07T10:55:02.512Z,96472.44
2019-06-07T10:57:29.415Z,96479.06
2019-06-07T10:59:56.892Z,96475.91
2019-06-07T11:02:24.542Z,96480.40
2019-06-07T11:04:52.051Z,96482.07
2019-06-07T11:07:19.551Z,96483.73
2019-06-07T11:09:47.197Z,96481.47
2019-06-07T11:12:15.284Z,96482.67
2019-06-07T11:14:42.544Z,96481.39
2019-06-07T11:17:11.343Z,96471.22
2019-06-07T11:19:37.571Z,96462.02
2019-06-07T11:22:06.074Z,96468.08
2019-06-07T11:24:32.607Z,96461.59
2019-06-07T11:27:00.095Z,96457.84
2019-06-07T11:29:27.870Z,96466.84
2019-06-07T11:31:55.348Z,96463.14
2019-06-07T11:34:22.936Z,96454.27
2019-06-07T11:36:51.163Z,96449.98
2019-06-07T11:39:18.898Z,96454.84
2019-06-07T11:41:46.086Z,96451.16
2019-06-07T11:44:15.016Z,96448.92
2019-06-07T11:46:42.063Z,96440.27
2019-06-07T11:49:10.890Z,96447.88
2019-06-07T11:51:37.071Z,96445.69
2019-06-07T11:54:04.615Z,96442.59
2019-06-07T11:56:32.367Z,96433.49
2019-06-07T11:58:59.876Z,96428.93
2019-06-07T12:01:27.402Z,96438.45
2019-06-07T12:03:54.455Z,96440.27
2019-06-07T12:06:21.629Z,96439.61
2019-06-07T12:08:49.119Z,96434.48
2019-06-07T12:11:16.978Z,96427.44
2019-06-07T12:13:44.052Z,96431.23
2019-06-07T12:16:11.309Z,96424.86
2019-06-07T12:18:38.173Z,96427.36
2019-06-07T12:21:05.175Z,96433.41
2019-06-07T12:23:32.259Z,96435.69
2019-06-07T12:25:59.437Z,96423.45
2019-06-07T12:28:26.463Z,96418.69
2019-06-07T12:30:55.218Z,96412.91
2019-06-07T12:33:21.727Z,96424.20
2019-06-07T12:35:49.115Z,96407.31
2019-06-07T12:38:17.336Z,96412.02
2019-06-07T12:40:56.856Z,96411.98
2019-06-07T12:43:12.370Z,96408.84
2019-06-07T12:45:44.955Z,96411.25
2019-06-07T12:48:07.762Z,96404.55
2019-06-07T12:50:42.750Z,96396.00
2019-06-07T12:53:02.845Z,96404.70
2019-06-07T12:55:30.323Z,96397.00
2019-06-07T12:57:57.790Z,96393.28
2019-06-07T13:00:25.251Z,96394.00
2019-06-07T13:02:52.775Z,96393.66
2019-06-07T13:05:21.658Z,96398.17
2019-06-07T13:07:47.756Z,96401.17
2019-06-07T13:10:15.658Z,96401.13
2019-06-07T13:12:44.086Z,96380.88
2019-06-07T13:15:09.617Z,96411.85
2019-06-07T13:17:37.112Z,96406.53
2019-06-07T13:20:05.376Z,96403.27
2019-06-07T13:22:32.867Z,96417.11
2019-06-07T13:25:00.327Z,96407.46
2019-06-07T13:27:31.923Z,96397.30
2019-06-07T13:29:55.593Z,96405.86
2019-06-07T13:32:23.746Z,96410.77
2019-06-07T13:34:51.164Z,96409.09
2019-06-07T13:37:19.635Z,96402.46
2019-06-07T13:39:46.171Z,96410.08
2019-06-07T13:42:13.994Z,96412.03
2019-06-07T13:44:40.988Z,96408.39
2019-06-07T13:47:08.016Z,96399.83
2019-06-07T13:49:35.026Z,96392.87
2019-06-07T13:52:02.093Z,96412.23
2019-06-07T13:54:29.711Z,96426.59
2019-06-07T13:57:02.406Z,96409.72
2019-06-07T13:59:26.344Z,96428.47
2019-06-07T14:01:52.514Z,96415.83
2019-06-07T14:04:20.917Z,96425.20
2019-06-07T14:06:47.627Z,96423.69
2019-06-07T14:09:15.098Z,96439.51
2019-06-07T14:11:50.752Z,96440.05
2019-06-07T14:14:10.100Z,96454.25
2019-06-07T14:16:37.582Z,96460.24
2019-06-07T14:19:05.037Z,96452.41
2019-06-07T14:21:32.524Z,96447.83
2019-06-07T14:24:00.058Z,96471.52
2019-06-07T14:26:27.536Z,96458.80
2019-06-07T14:28:55.007Z,96465.53
2019-06-07T14:31:24.394Z,96470.42
2019-06-07T14:33:49.559Z,96472.96
2019-06-07T14:36:17.105Z,96470.66
2019-06-07T14:38:44.566Z,96466.40
2019-06-07T14:41:12.078Z,96481.66
2019-06-07T14:43:39.666Z,96486.50
2019-06-07T14:46:07.109Z,96483.81
2019-06-07T14:48:34.637Z,96483.72
2019-06-07T14:51:02.147Z,96498.73
2019-06-07T14:53:30.842Z,96499.40
2019-06-07T14:55:57.168Z,96499.94
2019-06-07T14:58:25.021Z,96516.58
2019-06-07T15:00:52.158Z,96534.63
2019-06-07T15:03:19.620Z,96534.19
2019-06-07T15:05:47.121Z,96533.59
2019-06-07T15:08:14.625Z,96539.56
2019-06-07T15:10:42.181Z,96562.59
2019-06-07T15:13:09.701Z,96551.16
2019-06-07T15:15:37.208Z,96574.47
2019-06-07T15:18:04.673Z,96579.44
2019-06-07T15:20:32.270Z,96607.86
2019-06-07T15:23:00.097Z,96604.12
2019-06-07T15:25:29.067Z,96625.58
2019-06-07T15:27:55.202Z,96613.97
2019-06-07T15:30:22.774Z,96624.73
2019-06-07T15:32:50.245Z,96635.33
2019-06-07T15:35:17.746Z,96642.28
2019-06-07T15:37:45.314Z,96651.82
2019-06-07T15:40:13.252Z,96655.13
2019-06-07T15:42:52.049Z,96663.17
2019-06-07T15:45:08.244Z,96677.66
2019-06-07T15:47:35.942Z,96681.00
2019-06-07T15:50:10.640Z,96689.56
2019-06-07T15:52:38.856Z,96700.89
2019-06-07T15:55:06.454Z,96692.82
2019-06-07T15:57:35.150Z,96708.41
2019-06-07T16:00:01.655Z,96715.25
2019-06-07T16:02:29.075Z,96732.61
2019-06-07T16:04:56.539Z,96731.70
2019-06-07T16:07:23.980Z,96738.16
2019-06-07T16:09:51.470Z,96753.03
2019-06-07T16:12:19.651Z,96772.88
2019-06-07T16:14:47.137Z,96774.33
2019-06-07T16:17:14.656Z,96791.66
2019-06-07T16:19:44.942Z,96793.81
2019-06-07T16:22:10.117Z,96795.38
2019-06-07T16:24:37.722Z,96805.86
2019-06-07T16:27:05.212Z,96803.72
2019-06-07T16:29:32.696Z,96807.46
2019-06-07T16:32:00.163Z,96823.02
2019-06-07T16:34:27.647Z,96834.43
2019-06-07T16:36:55.283Z,96835.21
2019-06-07T16:39:22.785Z,96842.23
2019-06-07T16:41:50.291Z,96849.41
2019-06-07T16:44:17.805Z,96870.52
2019-06-07T16:46:45.303Z,96878.55
2019-06-07T16:49:12.789Z,96884.89
2019-06-07T16:51:41.287Z,96880.85
2019-06-07T16:54:07.763Z,96904.45
2019-06-07T16:56:35.291Z,96911.43
2019-06-07T16:59:02.771Z,96926.09
2019-06-07T17:01:30.327Z,96943.59
2019-06-07T17:03:57.838Z,96956.64
2019-06-07T17:06:25.452Z,96962.95
2019-06-07T17:08:52.970Z,96982.91
2019-06-07T17:11:20.483Z,97005.20
2019-06-07T17:13:48.562Z,97006.23
2019-06-07T17:16:15.641Z,97025.48
2019-06-07T17:18:43.143Z,97020.04
2019-06-07T17:21:10.612Z,97022.93
2019-06-07T17:23:39.116Z,97022.81
2019-06-07T17:26:05.603Z,97038.15
2019-06-07T17:28:33.203Z,97051.59
2019-06-07T17:33:34.526Z,97076.85
2019-06-07T17:36:02.076Z,97084.16
2019-06-07T17:38:29.581Z,97084.05
2019-06-07T17:40:57.103Z,97095.52
2019-06-07T17:43:24.622Z,97102.49
2019-06-07T17:45:52.115Z,97106.34
2019-06-07T17:48:19.568Z,97122.41
2019-06-07T17:50:47.800Z,97124.81
2019-06-07T17:53:15.411Z,97117.89
2019-06-07T17:55:44.110Z,97134.98
2019-06-07T17:58:10.556Z,97132.95
2019-06-07T18:00:44.639Z,97140.78
2019-06-07T18:03:12.002Z,97139.37
2019-06-07T18:05:39.543Z,97160.11
2019-06-07T18:08:07.028Z,97152.34
2019-06-07T18:10:35.533Z,97160.28
2019-06-07T18:13:02.995Z,97169.16
2019-06-07T18:15:40.169Z,97170.74
2019-06-07T18:18:07.697Z,97183.30
2019-06-07T18:20:35.152Z,97178.58
2019-06-07T18:23:02.640Z,97182.73
2019-06-07T18:25:30.166Z,97179.44
2019-06-07T18:27:58.941Z,97180.29
2019-06-07T18:30:25.194Z,97195.11
2019-06-07T18:32:52.952Z,97195.30
2019-06-07T18:35:20.142Z,97193.47
2019-06-07T18:37:48.867Z,97195.77
2019-06-07T18:40:15.101Z,97202.33
2019-06-07T18:42:42.570Z,97205.45
2019-06-07T18:45:10.027Z,97209.36
2019-06-07T18:47:37.519Z,97213.23
2019-06-07T18:50:05.017Z,97220.81
2019-06-07T18:52:32.563Z,97241.53
2019-06-07T18:55:00.129Z,97241.36
2019-06-07T18:57:27.615Z,97254.10
2019-06-07T18:59:56.436Z,97253.27
2019-06-07T19:02:22.623Z,97253.94
2019-06-07T19:04:50.600Z,97258.89
2019-06-07T19:07:17.674Z,97266.47
2019-06-07T19:09:45.257Z,97282.44
2019-06-07T19:12:12.750Z,97280.10
2019-06-07T19:14:40.275Z,97285.63
2019-06-07T19:17:07.792Z,97291.61
2019-06-07T19:19:35.294Z,97297.02
2019-06-07T19:22:03.128Z,97302.13
2019-06-07T19:24:30.581Z,97314.99
2019-06-07T19:26:58.700Z,97313.02
2019-06-07T19:29:25.761Z,97327.50
2019-06-07T19:31:53.267Z,97346.38
2019-06-07T19:34:20.721Z,97355.42
2019-06-07T19:36:49.147Z,97360.43
2019-06-07T19:39:15.696Z,97364.19
2019-06-07T19:41:43.155Z,97362.36
2019-06-07T19:44:10.635Z,97356.44
2019-06-07T19:46:38.195Z,97367.66
2019-06-07T19:49:05.807Z,97372.17
2019-06-07T19:51:33.289Z,97379.47
2019-06-07T19:54:01.774Z,97394.87
2019-06-07T19:56:28.304Z,97398.33
2019-06-07T19:58:55.755Z,97410.48
2019-06-07T20:01:23.309Z,97424.61
2019-06-07T20:03:50.812Z,97425.84
2019-06-07T20:06:18.440Z,97431.23
2019-06-07T20:08:45.907Z,97432.06
2019-06-07T20:11:13.502Z,97436.43
2019-06-07T20:13:40.994Z,97441.04
2019-06-07T20:16:08.438Z,97444.72
2019-06-07T20:18:35.898Z,97441.55
2019-06-07T20:21:04.824Z,97460.76
2019-06-07T20:23:31.046Z,97456.20
2019-06-07T20:25:58.500Z,97461.36
2019-06-07T20:28:26.822Z,97469.77
2019-06-07T20:30:54.304Z,97465.99
2019-06-07T20:33:21.820Z,97461.94
2019-06-07T20:35:49.328Z,97456.05
2019-06-07T20:38:16.803Z,97462.95
2019-06-07T20:40:44.368Z,97475.75
2019-06-07T20:43:11.835Z,97474.88
2019-06-07T20:45:39.298Z,97475.52
2019-06-07T20:48:08.305Z,97476.81
2019-06-07T20:50:34.469Z,97466.31
2019-06-07T20:53:03.162Z,97464.55
2019-06-07T20:55:29.512Z,97473.38
2019-06-07T20:57:57.099Z,97476.38
2019-06-07T21:00:24.572Z,97468.30
2019-06-07T21:02:52.028Z,97476.10
2019-06-07T21:05:19.497Z,97489.82
2019-06-07T21:07:46.949Z,97514.30
2019-06-07T21:10:14.438Z,97516.24
2019-06-07T21:12:41.979Z,97510.69
2019-06-07T21:15:12.834Z,97503.48
2019-06-07T21:17:36.988Z,97498.04
2019-06-07T21:20:07.059Z,97495.02
2019-06-07T21:22:32.132Z,97482.36
2019-06-07T21:25:00.669Z,97487.33
2019-06-07T21:27:27.258Z,97489.67
2019-06-07T21:29:54.746Z,97474.27
2019-06-07T21:32:22.190Z,97477.22
2019-06-07T21:34:49.738Z,97472.20
2019-06-07T21:37:18.176Z,97461.37
2019-06-07T21:39:45.627Z,97473.17
2019-06-07T21:42:13.095Z,97490.88
2019-06-07T21:44:40.682Z,97513.05
2019-06-07T21:47:08.488Z,97536.06
2019-06-07T21:49:35.712Z,97540.59
2019-06-07T21:52:04.323Z,97535.11
2019-06-07T21:54:30.822Z,97544.26
2019-06-07T21:56:58.400Z,97548.51
2019-06-07T21:59:25.917Z,97557.20
2019-06-07T22:01:53.435Z,97565.55
2019-06-07T22:04:20.906Z,97572.19
2019-06-07T22:06:48.361Z,97564.48
2019-06-07T22:09:15.874Z,97581.94
2019-06-07T22:11:43.347Z,97580.51
2019-06-07T22:14:10.823Z,97578.33
2019-06-07T22:16:38.763Z,97571.28
2019-06-07T22:19:06.545Z,97576.80
2019-06-07T22:21:33.738Z,97584.89
2019-06-07T22:24:01.202Z,97593.11
2019-06-07T22:26:28.876Z,97603.15
2019-06-07T22:28:56.361Z,97597.39
2019-06-07T22:31:23.863Z,97606.17
2019-06-07T22:33:52.331Z,97612.79
2019-06-07T22:36:19.959Z,97628.23
2019-06-07T22:38:47.527Z,97623.48
2019-06-07T22:41:15.899Z,97600.22
2019-06-07T22:43:42.562Z,97601.55
2019-06-07T22:46:10.846Z,97611.92
2019-06-07T22:48:37.606Z,97613.36
2019-06-07T22:51:07.265Z,97610.80
2019-06-07T22:53:32.807Z,97612.02
2019-06-07T22:56:01.252Z,97605.84
2019-06-07T22:58:28.778Z,97607.16
2019-06-07T23:00:56.223Z,97606.73
2019-06-07T23:03:23.717Z,97604.40
2019-06-07T23:05:51.198Z,97614.08
2019-06-07T23:08:19.087Z,97628.34
2019-06-07T23:10:46.178Z,97631.91
2019-06-07T23:13:13.821Z,97634.84
2019-06-07T23:15:41.392Z,97635.56
2019-06-07T23:18:09.378Z,97644.18
2019-06-07T23:20:36.510Z,97648.66
2019-06-07T23:23:04.007Z,97653.65
2019-06-07T23:25:31.464Z,97658.25
2019-06-07T23:27:58.940Z,97656.88
2019-06-07T23:30:26.426Z,97655.81
2019-06-07T23:32:54.285Z,97663.22
2019-06-07T23:35:21.774Z,97663.20
2019-06-07T23:37:49.359Z,97675.27
2019-06-07T23:40:17.344Z,97674.22
2019-06-07T23:42:44.362Z,97673.03
2019-06-07T23:45:13.646Z,97682.31
2019-06-07T23:47:39.707Z,97684.53
2019-06-07T23:50:07.247Z,97694.14
2019-06-07T23:52:34.703Z,97688.56
2019-06-07T23:55:02.255Z,97699.27
2019-06-07T23:57:29.748Z,97694.88
2019-06-07T23:59:57.295Z,97694.91
